Stasiun Meteorologi Ngurah Rai - Denpasar
PERINGATAN DINI
TIDAK ADA PERINGATAN
TANDA WAKTU
sinkronisasi jam server ...
sinkronisasi jam server ...

CITRA SATELIT HIMAWARI

CITRA SATELIT BALI
CITRA SATELIT INDONESIA

PRAKIRAAN ANGIN 3000FT

GEMPA TERKINI

15:20:14 WIB 29-Mar-17
5,0 SR
0.09 LS - 123.44 BT
115 Km

TIDAK BERPOTENSI TSUNAMI
Posisi :
- 70 km BaratDaya BOLAANGMONGONDOWSEL-SULUT
- 73 km Tenggara BONEBOLANGO-GORONTALO
- 82 km Tenggara GORONTALO-GORONTALO
- 100 km Tenggara KAB-GORONTALO

VIDEO PROFIL

ALUR PELAYANAN KHUSUS PENERBANGAN

ALUR PELAYANAN JASA UMUM


AWC - ADDS METARs
ADDS METAR Data

Data at: 1422 UTC 28 May 2017

WADD 281400Z 08009KT 9999 SCT017 27/25 Q1010 NOSIG
WADD 281330Z 08009KT 9999 FEW016CB SCT017 27/25 Q1010 NOSIG RMK CB TO NE
WADD 281300Z 08011KT 9999 FEW016CB SCT017 27/26 Q1010 NOSIG RMK CB TO NE
WADD 281230Z 09010KT 9999 FEW015CB FEW016 27/26 Q1010 NOSIG RMK CB TO N
WADD 281200Z 09010KT 9999 FEW016CB FEW016 27/26 Q1010 NOSIG RMK CB TO NW
WADD 281130Z 10012KT 9999 FEW016CB SCT016 27/26 Q1009 NOSIG RMK CB TO N

TAF WADD 281100Z 2812/2912 10012KT 9999 SCT017
  TEMPO 2823/2903 5000 RA FEW015CB BKN016
  TEMPO 2906/2910 FEW016CB SCT017


BERITA PUBLIKASI
10 Mei 2017 - PANDE PUTU HADI WIGUNA, S.Tr
Buletin Edisi Mei 2017
Meteodrome Edisi Mei 2017... Selengkapnya..
10 April 2017 -
Buletin Edisi April 2017
Edisi April 2017
Pancaroba... Selengkapnya..
10 Maret 2017 -
Buletin Edisi Maret 2017
... Selengkapnya..
10 Februari 2017 -
Buletin Edisi Februari 2017
... Selengkapnya..
10 Januari 2017 -
Buletin Edisi Januari 2017
Edisi perdana 2017... Selengkapnya..